.
WxDataArchive / Data Records for 2008-07-27
2008-07-26 July 2008 2008-07-28

Data Records for Sunday, 27 July 2008

Time	Temp	Chill	HIndex	Humid	Dewpt	 Wind 	HiWind	WindDir	Rain 	Barom 
-----	----	-----	------	-----	-----	------	------	-------	-----	----- 
00:00	59.6	59.6	59.6	84	54.8	0	0	---	0.00	29.867 
00:05	59.5	59.5	59.5	84	54.7	0	0	---	0.00	29.864 
00:10	59.3	59.3	59.3	84	54.5	0	0	---	0.00	29.862 
00:15	59.2	59.2	59.2	85	54.7	0	0	---	0.00	29.867 
00:20	58.9	58.9	58.9	85	54.4	0	0	---	0.00	29.866 
00:25	58.7	58.7	58.7	86	54.5	0	0	---	0.00	29.863 
00:30	58.6	58.6	58.6	87	54.7	0	0	---	0.00	29.864 
00:35	58.4	58.4	58.4	87	54.5	0	0	---	0.00	29.867 
00:40	58.3	58.3	58.3	87	54.4	0	0	---	0.00	29.867 
00:45	58.1	58.1	58.1	88	54.6	0	0	---	0.00	29.867 
00:50	58.1	58.1	58.1	88	54.6	0	0	---	0.00	29.865 
00:55	58.0	58.0	58.0	88	54.5	0	0	---	0.00	29.866 
01:00	57.8	57.8	57.8	88	54.3	0	0	---	0.00	29.864 
01:05	57.6	57.6	57.6	89	54.4	0	0	---	0.00	29.861 
01:10	57.5	57.5	57.5	89	54.3	0	0	---	0.00	29.859 
01:15	57.5	57.5	57.5	89	54.3	0	0	---	0.00	29.861 
01:20	57.3	57.3	57.3	90	54.4	0	0	---	0.00	29.858 
01:25	57.3	57.3	57.3	90	54.4	0	0	---	0.00	29.859 
01:30	57.2	57.2	57.2	90	54.3	0	0	---	0.00	29.859 
01:35	57.0	57.0	57.0	90	54.1	0	0	---	0.00	29.860 
01:40	57.0	57.0	57.0	90	54.1	0	0	---	0.00	29.859 
01:45	56.9	56.9	56.9	91	54.3	0	0	---	0.00	29.860 
01:50	56.9	56.9	56.9	91	54.3	0	0	---	0.00	29.859 
01:55	56.9	56.9	56.9	91	54.3	0	0	---	0.00	29.859 
02:00	56.9	56.9	56.9	91	54.3	0	0	---	0.00	29.858 
02:05	56.7	56.7	56.7	91	54.1	0	0	---	0.00	29.863 
02:10	56.6	56.6	56.6	92	54.3	0	0	---	0.00	29.863 
02:15	56.5	56.5	56.5	92	54.2	0	0	---	0.00	29.862 
02:20	56.5	56.5	56.5	92	54.2	0	0	---	0.00	29.862 
02:25	56.3	56.3	56.3	92	54.0	0	0	---	0.00	29.861 
02:30	56.3	56.3	56.3	92	54.0	0	0	---	0.00	29.858 
02:35	56.2	56.2	56.2	92	53.9	0	0	---	0.00	29.860 
02:40	56.2	56.2	56.2	92	53.9	0	0	---	0.00	29.860 
02:45	56.2	56.2	56.2	92	53.9	0	0	---	0.00	29.859 
02:50	56.0	56.0	56.0	93	54.0	0	0	---	0.00	29.860 
02:55	56.0	56.0	56.0	93	54.0	0	0	---	0.00	29.857 
03:00	56.0	56.0	56.0	93	54.0	0	0	---	0.00	29.856 
03:05	56.2	56.2	56.2	93	54.2	0	0	---	0.00	29.857 
03:10	56.2	56.2	56.2	93	54.2	0	0	---	0.00	29.859 
03:15	56.3	56.3	56.3	93	54.3	0	0	---	0.00	29.857 
03:20	56.5	56.5	56.5	93	54.5	0	0	---	0.00	29.858 
03:25	56.5	56.5	56.5	93	54.5	0	0	---	0.00	29.855 
03:30	56.3	56.3	56.3	93	54.3	0	0	---	0.00	29.855 
03:35	56.3	56.3	56.3	93	54.3	0	0	---	0.00	29.858 
03:40	56.3	56.3	56.3	93	54.3	0	0	---	0.00	29.858 
03:45	56.5	56.5	56.5	93	54.5	0	0	---	0.00	29.857 
03:50	56.5	56.5	56.5	93	54.5	0	0	---	0.00	29.856 
03:55	56.5	56.5	56.5	93	54.5	0	0	---	0.00	29.855 
04:00	56.5	56.5	56.5	93	54.5	0	0	---	0.00	29.854 
04:05	56.3	56.3	56.3	93	54.3	0	0	---	0.00	29.860 
04:10	56.2	56.2	56.2	93	54.2	0	0	---	0.00	29.861 
04:15	56.2	56.2	56.2	93	54.2	0	0	---	0.00	29.863 
04:20	56.2	56.2	56.2	93	54.2	0	0	---	0.00	29.865 
04:25	56.3	56.3	56.3	94	54.6	0	0	---	0.00	29.867 
04:30	56.3	56.3	56.3	93	54.3	0	0	---	0.00	29.866 
04:35	56.3	56.3	56.3	93	54.3	0	0	---	0.00	29.866 
04:40	56.3	56.3	56.3	93	54.3	0	0	---	0.00	29.865 
04:45	56.3	56.3	56.3	93	54.3	0	0	---	0.00	29.866 
04:50	56.2	56.2	56.2	93	54.2	0	0	---	0.00	29.867 
04:55	56.3	56.3	56.3	93	54.3	0	0	---	0.00	29.869 
05:00	56.5	56.5	56.5	93	54.5	0	0	---	0.00	29.871 
05:05	56.5	56.5	56.5	93	54.5	0	0	---	0.00	29.873 
05:10	56.5	56.5	56.5	92	54.2	0	0	---	0.00	29.878 
05:15	56.6	56.6	56.6	92	54.3	0	0	---	0.00	29.877 
05:20	56.5	56.5	56.5	92	54.2	0	0	---	0.00	29.877 
05:25	56.5	56.5	56.5	92	54.2	0	0	---	0.00	29.877 
05:30	56.6	56.6	56.6	92	54.3	0	0	---	0.00	29.879 
05:35	56.7	56.7	56.7	92	54.4	0	0	---	0.00	29.878 
05:40	56.7	56.7	56.7	91	54.1	0	0	---	0.00	29.878 
05:45	56.9	56.9	56.9	91	54.3	0	0	---	0.00	29.883 
05:50	56.9	56.9	56.9	91	54.3	0	0	---	0.00	29.884 
05:55	56.9	56.9	56.9	90	54.0	0	0	---	0.00	29.882 
06:00	56.9	56.9	56.9	90	54.0	0	0	---	0.00	29.882 
06:05	56.9	56.9	56.9	90	54.0	0	0	---	0.00	29.884 
06:10	57.0	57.0	57.0	90	54.1	0	0	---	0.00	29.886 
06:15	57.2	57.2	57.2	89	54.0	0	0	---	0.00	29.884 
06:20	57.5	57.5	57.5	89	54.3	0	0	---	0.00	29.882 
06:25	57.8	57.8	57.8	89	54.6	0	0	---	0.00	29.880 
06:30	58.1	58.1	58.1	88	54.6	0	0	---	0.00	29.879 
06:35	58.6	58.6	58.6	88	55.1	0	0	---	0.00	29.876 
06:40	59.0	59.0	59.0	86	54.8	0	0	---	0.00	29.874 
06:45	59.5	59.5	59.5	85	55.0	0	0	---	0.00	29.870 
06:50	60.1	60.1	60.1	83	54.9	0	0	---	0.00	29.870 
06:55	60.7	60.7	60.7	82	55.2	0	0	---	0.00	29.868 
07:00	61.3	61.3	61.3	80	55.1	0	1	292	0.00	29.876 
07:05	62.0	62.0	62.0	79	55.4	0	1	292	0.00	29.878 
07:10	62.6	62.6	62.6	78	55.6	0	1	292	0.00	29.879 
07:15	63.2	63.2	63.2	77	55.9	0	1	292	0.00	29.883 
07:20	63.9	63.9	63.9	75	55.8	0	1	292	0.00	29.880 
07:25	64.3	64.3	64.3	72	55.1	0	2	292	0.00	29.882 
07:30	64.8	64.8	64.8	72	55.6	0	1	292	0.00	29.881 
07:35	65.3	65.3	65.3	71	55.6	0	1	292	0.00	29.879 
07:40	65.8	65.8	65.8	70	55.7	0	1	292	0.00	29.876 
07:45	66.3	66.3	66.3	69	55.8	0	2	292	0.00	29.879 
07:50	66.9	66.9	66.9	69	56.4	0	2	292	0.00	29.880 
07:55	67.6	67.6	67.6	68	56.7	0	1	292	0.00	29.879 
08:00	68.1	68.1	68.1	66	56.3	1	2	292	0.00	29.875 
08:05	68.6	68.6	68.6	66	56.8	1	2	292	0.00	29.880 
08:10	69.1	69.1	69.1	65	56.8	0	1	292	0.00	29.878 
08:15	69.6	69.6	69.6	65	57.3	0	2	292	0.00	29.879 
08:20	70.1	70.1	70.1	64	57.3	0	1	292	0.00	29.878 
08:25	70.6	70.6	70.6	61	56.5	1	2	315	0.00	29.876 
08:30	70.9	70.9	70.9	63	57.7	1	2	315	0.00	29.874 
08:35	71.3	71.3	71.3	59	56.2	1	2	315	0.00	29.873 
08:40	71.6	71.6	71.6	59	56.5	1	2	315	0.00	29.874 
08:45	72.0	72.0	72.0	60	57.3	1	2	315	0.00	29.877 
08:50	72.3	72.3	72.3	59	57.2	1	3	315	0.00	29.883 
08:55	72.7	72.7	72.7	59	57.5	0	2	315	0.00	29.883 
09:00	73.0	73.0	73.0	58	57.3	1	2	315	0.00	29.879 
09:05	73.5	73.5	73.5	59	58.3	1	2	315	0.00	29.883 
09:10	74.0	74.0	74.0	58	58.3	1	2	315	0.00	29.882 
09:15	74.4	74.4	74.4	54	56.7	1	3	315	0.00	29.886 
09:20	74.7	74.7	74.7	55	57.4	1	3	315	0.00	29.888 
09:25	74.9	74.9	74.9	55	57.6	1	2	315	0.00	29.887 
09:30	74.9	74.9	74.9	53	56.6	1	4	292	0.00	29.888 
09:35	74.9	74.9	74.9	53	56.6	1	3	270	0.00	29.890 
09:40	75.1	75.1	77.6	52	56.3	1	3	270	0.00	29.890 
09:45	75.4	75.4	77.8	54	57.6	1	3	315	0.00	29.889 
09:50	76.0	76.0	78.1	52	57.1	1	2	315	0.00	29.887 
09:55	76.1	76.1	78.1	51	56.6	1	3	292	0.00	29.886 
10:00	76.7	76.7	78.4	51	57.2	1	5	248	0.00	29.888 
10:05	76.8	76.8	78.5	49	56.2	1	3	248	0.00	29.889 
10:10	77.0	77.0	78.5	48	55.8	1	3	292	0.00	29.891 
10:15	77.0	77.0	78.5	47	55.2	1	4	270	0.00	29.890 
10:20	77.2	77.2	78.7	49	56.5	1	3	292	0.00	29.891 
10:25	77.7	77.7	79.0	50	57.6	1	3	248	0.00	29.892 
10:30	78.1	78.1	79.2	47	56.2	1	4	248	0.00	29.891 
10:35	78.5	78.5	79.6	50	58.3	1	4	248	0.00	29.892 
10:40	78.8	78.8	79.7	48	57.4	1	3	248	0.00	29.889 
10:45	79.0	79.0	79.8	47	57.0	1	3	248	0.00	29.887 
10:50	79.2	79.2	79.8	46	56.6	1	4	248	0.00	29.886 
10:55	79.2	79.2	79.7	44	55.4	2	4	248	0.00	29.890 
11:00	79.2	79.2	79.7	44	55.4	1	3	248	0.00	29.891 
11:05	79.6	79.6	80.0	45	56.4	1	2	248	0.00	29.893 
11:10	79.8	79.8	80.0	43	55.3	2	4	248	0.00	29.893 
11:15	79.6	79.6	79.8	42	54.5	2	4	270	0.00	29.892 
11:20	79.6	79.6	80.0	44	55.7	2	4	270	0.00	29.892 
11:25	79.8	79.8	80.1	44	55.9	1	3	292	0.00	29.890 
11:30	80.1	80.1	80.4	45	56.8	1	5	248	0.00	29.888 
11:35	80.3	80.3	80.7	46	57.6	0	2	270	0.00	29.881 
11:40	80.5	80.5	80.5	42	55.3	2	4	270	0.00	29.881 
11:45	80.1	80.1	80.1	41	54.2	1	3	315	0.00	29.882 
11:50	80.5	80.5	80.7	45	57.2	1	3	292	0.00	29.880 
11:55	80.9	80.9	80.9	43	56.3	1	4	248	0.00	29.878 
12:00	81.1	81.1	80.8	41	55.1	1	5	270	0.00	29.877 
12:05	81.1	81.1	81.0	43	56.5	2	4	270	0.00	29.879 
12:10	80.7	80.7	80.7	43	56.1	1	3	315	0.00	29.882 
12:15	80.5	80.5	80.6	44	56.6	1	3	315	0.00	29.882 
12:20	80.7	80.7	80.8	44	56.7	1	4	248	0.00	29.884 
12:25	80.9	80.9	80.5	39	53.6	1	3	292	0.00	29.879 
12:30	81.2	81.2	80.7	39	53.9	1	3	292	0.00	29.879 
12:35	81.2	81.2	80.9	41	55.2	1	3	292	0.00	29.879 
12:40	81.4	81.4	80.9	39	54.0	1	4	248	0.00	29.878 
12:45	81.8	81.8	81.3	40	55.1	1	3	248	0.00	29.877 
12:50	82.2	82.2	81.5	39	54.7	1	3	270	0.00	29.876 
12:55	82.4	82.4	81.8	40	55.6	1	7	270	0.00	29.872 
13:00	82.6	82.6	81.8	39	55.1	1	2	270	0.00	29.870 
13:05	82.6	82.6	81.7	38	54.4	1	4	270	0.00	29.870 
13:10	82.6	82.6	81.6	37	53.7	1	4	270	0.00	29.866 
13:15	82.6	82.6	81.6	37	53.7	1	3	248	0.00	29.864 
13:20	82.4	82.4	81.6	38	54.2	1	3	248	0.00	29.864 
13:25	82.6	82.6	82.0	40	55.8	0	2	315	0.00	29.867 
13:30	82.6	82.6	81.5	36	52.9	2	3	315	0.00	29.869 
13:35	82.4	82.4	81.4	37	53.5	1	3	270	0.00	29.867 
13:40	82.8	82.8	82.0	39	55.3	1	3	248	0.00	29.865 
13:45	83.0	83.0	81.8	36	53.3	1	2	315	0.00	29.863 
13:50	83.0	83.0	81.8	36	53.3	2	4	270	0.00	29.866 
13:55	83.2	83.2	81.9	35	52.7	0	2	270	0.00	29.862 
14:00	83.0	83.0	81.7	35	52.5	1	4	225	0.00	29.861 
14:05	82.8	82.8	81.6	35	52.3	2	4	270	0.00	29.863 
14:10	83.0	83.0	81.7	35	52.5	1	3	248	0.00	29.860 
14:15	83.2	83.2	81.9	35	52.7	1	2	270	0.00	29.853 
14:20	83.0	83.0	81.6	34	51.7	1	3	315	0.00	29.849 
14:25	82.8	82.8	81.6	35	52.3	1	3	292	0.00	29.849 
14:30	83.2	83.2	81.7	33	51.1	1	2	270	0.00	29.845 
14:35	83.4	83.4	82.2	36	53.6	0	3	270	0.00	29.845 
14:40	84.0	84.0	82.7	36	54.1	1	3	270	0.00	29.842 
14:45	84.0	84.0	82.7	36	54.1	1	3	270	0.00	29.839 
14:50	84.0	84.0	82.2	32	50.9	1	2	248	0.00	29.837 
14:55	83.6	83.6	82.0	33	51.4	1	3	248	0.00	29.833 
15:00	83.6	83.6	82.4	36	53.8	1	3	248	0.00	29.830 
15:05	84.0	84.0	82.8	37	54.9	2	4	270	0.00	29.830 
15:10	84.1	84.1	82.8	36	54.2	1	3	248	0.00	29.829 
15:15	83.8	83.8	82.5	36	54.0	2	4	270	0.00	29.828 
15:20	83.4	83.4	82.4	38	55.1	2	5	248	0.00	29.829 
15:25	83.4	83.4	82.2	36	53.6	1	2	270	0.00	29.827 
15:30	83.6	83.6	82.4	36	53.8	1	3	248	0.00	29.825 
15:35	83.8	83.8	82.8	38	55.5	1	3	248	0.00	29.822 
15:40	83.6	83.6	82.2	35	53.0	1	4	270	0.00	29.822 
15:45	83.4	83.4	82.2	36	53.6	1	5	270	0.00	29.819 
15:50	83.4	83.4	82.4	38	55.1	1	3	248	0.00	29.820 
15:55	83.8	83.8	82.8	38	55.5	1	3	248	0.00	29.822 
16:00	84.0	84.0	82.5	34	52.6	1	2	248	0.00	29.824 
16:05	83.6	83.6	82.2	35	53.0	2	5	270	0.00	29.826 
16:10	83.8	83.8	82.5	36	54.0	0	2	270	0.00	29.826 
16:15	84.0	84.0	82.6	35	53.4	1	3	270	0.00	29.825 
16:20	84.0	84.0	82.5	34	52.6	1	4	248	0.00	29.827 
16:25	84.0	84.0	82.5	34	52.6	2	4	270	0.00	29.828 
16:30	83.8	83.8	82.4	35	53.2	1	4	270	0.00	29.825 
16:35	83.6	83.6	82.0	33	51.4	2	4	270	0.00	29.827 
16:40	83.0	83.0	81.6	34	51.7	2	4	292	0.00	29.827 
16:45	83.0	83.0	81.8	36	53.3	1	4	248	0.00	29.825 
16:50	83.0	83.0	81.6	34	51.7	2	4	270	0.00	29.827 
16:55	83.0	83.0	82.0	37	54.0	1	3	248	0.00	29.827 
17:00	82.8	82.8	81.8	37	53.8	1	4	270	0.00	29.826 
17:05	82.8	82.8	82.0	39	55.3	1	4	270	0.00	29.826 
17:10	82.6	82.6	81.4	35	52.1	1	4	270	0.00	29.827 
17:15	82.6	82.6	81.5	36	52.9	1	3	270	0.00	29.828 
17:20	82.4	82.4	81.3	36	52.7	1	3	292	0.00	29.830 
17:25	82.4	82.4	81.3	36	52.7	1	3	292	0.00	29.829 
17:30	82.4	82.4	81.4	37	53.5	1	3	292	0.00	29.828 
17:35	82.4	82.4	81.6	38	54.2	1	3	292	0.00	29.829 
17:40	82.2	82.2	81.4	38	54.0	1	3	270	0.00	29.827 
17:45	81.8	81.8	81.1	38	53.7	1	3	270	0.00	29.827 
17:50	81.6	81.6	81.0	39	54.2	1	3	270	0.00	29.828 
17:55	81.6	81.6	81.1	40	54.9	0	1	270	0.00	29.829 
18:00	81.4	81.4	81.0	40	54.7	1	3	270	0.00	29.829 
18:05	81.2	81.2	80.9	41	55.2	1	3	270	0.00	29.826 
18:10	81.2	81.2	80.8	40	54.6	1	2	270	0.00	29.827 
18:15	81.1	81.1	80.5	38	53.1	1	3	270	0.00	29.826 
18:20	80.9	80.9	80.4	38	52.9	2	4	270	0.00	29.825 
18:25	80.7	80.7	80.3	39	53.4	1	2	270	0.00	29.826 
18:30	80.5	80.5	80.3	40	53.9	0	2	270	0.00	29.826 
18:35	80.5	80.5	80.3	40	53.9	0	2	315	0.00	29.826 
18:40	80.3	80.3	80.3	42	55.1	0	1	315	0.00	29.828 
18:45	80.3	80.3	80.4	43	55.7	0	1	315	0.00	29.828 
18:50	80.1	80.1	80.3	43	55.6	0	1	315	0.00	29.827 
18:55	79.8	79.8	80.1	44	55.9	0	1	315	0.00	29.823 
19:00	79.6	79.6	79.9	43	55.1	0	1	315	0.00	29.816 
19:05	79.2	79.2	79.7	44	55.4	0	0	---	0.00	29.811 
19:10	79.0	79.0	79.6	44	55.2	0	1	315	0.00	29.812 
19:15	78.8	78.8	79.5	45	55.6	0	1	315	0.00	29.809 
19:20	78.6	78.6	79.4	46	56.1	0	1	315	0.00	29.810 
19:25	78.5	78.5	79.4	46	56.0	0	0	---	0.00	29.809 
19:30	78.3	78.3	79.2	46	55.8	0	0	---	0.00	29.808 
19:35	77.9	77.9	79.0	47	56.0	0	0	---	0.00	29.809 
19:40	77.7	77.7	78.9	48	56.4	0	0	---	0.00	29.807 
19:45	77.2	77.2	78.7	50	57.1	0	0	---	0.00	29.808 
19:50	76.7	76.7	78.4	50	56.6	0	1	315	0.00	29.808 
19:55	76.5	76.5	78.4	52	57.5	0	1	315	0.00	29.810 
20:00	76.1	76.1	78.1	52	57.2	0	1	315	0.00	29.810 
20:05	75.8	75.8	78.0	54	57.9	0	0	---	0.00	29.806 
20:10	75.4	75.4	77.8	54	57.6	0	1	315	0.00	29.807 
20:15	75.4	75.4	77.8	54	57.6	0	1	315	0.00	29.812 
20:20	75.3	75.3	77.7	54	57.5	0	1	315	0.00	29.813 
20:25	75.3	75.3	77.7	54	57.5	0	2	315	0.00	29.818 
20:30	75.3	75.3	77.7	55	58.0	0	1	315	0.00	29.815 
20:35	75.1	75.1	77.6	56	58.3	0	1	315	0.00	29.819 
20:40	75.1	75.1	77.6	56	58.3	0	1	315	0.00	29.821 
20:45	74.9	74.9	74.9	56	58.1	0	1	315	0.00	29.821 
20:50	74.6	74.6	74.6	57	58.3	0	1	315	0.00	29.821 
20:55	74.4	74.4	74.4	57	58.2	0	1	315	0.00	29.824 
21:00	74.2	74.2	74.2	58	58.5	0	1	315	0.00	29.824 
21:05	74.0	74.0	74.0	58	58.3	0	1	315	0.00	29.820 
21:10	73.9	73.9	73.9	58	58.2	0	1	315	0.00	29.823 
21:15	73.7	73.7	73.7	59	58.5	0	0	---	0.00	29.822 
21:20	73.5	73.5	73.5	60	58.7	0	0	---	0.00	29.822 
21:25	73.2	73.2	73.2	60	58.5	0	0	---	0.00	29.821 
21:30	72.8	72.8	72.8	61	58.6	0	0	---	0.00	29.822 
21:35	72.5	72.5	72.5	62	58.7	0	0	---	0.00	29.823 
21:40	72.3	72.3	72.3	62	58.5	0	0	---	0.00	29.826 
21:45	72.1	72.1	72.1	63	58.8	0	0	---	0.00	29.827 
21:50	71.8	71.8	71.8	63	58.5	0	0	---	0.00	29.826 
21:55	71.5	71.5	71.5	64	58.7	0	0	---	0.00	29.824 
22:00	71.3	71.3	71.3	65	58.9	0	0	---	0.00	29.822 
22:05	70.9	70.9	70.9	65	58.5	0	0	---	0.00	29.821 
22:10	70.8	70.8	70.8	66	58.9	0	0	---	0.00	29.820 
22:15	70.6	70.6	70.6	66	58.7	0	0	---	0.00	29.819 
22:20	70.4	70.4	70.4	67	58.9	0	0	---	0.00	29.819 
22:25	70.3	70.3	70.3	67	58.8	0	0	---	0.00	29.820 
22:30	70.1	70.1	70.1	68	59.0	0	0	---	0.00	29.820 
22:35	70.1	70.1	70.1	68	59.0	0	0	---	0.00	29.819 
22:40	69.9	69.9	69.9	69	59.3	0	0	---	0.00	29.820 
22:45	69.8	69.8	69.8	69	59.2	0	0	---	0.00	29.819 
22:50	69.6	69.6	69.6	69	59.0	0	0	---	0.00	29.822 
22:55	69.6	69.6	69.6	70	59.4	0	0	---	0.00	29.821 
23:00	69.4	69.4	69.4	70	59.2	0	0	---	0.00	29.820 
23:05	69.3	69.3	69.3	70	59.1	0	0	---	0.00	29.819 
23:10	69.1	69.1	69.1	71	59.3	0	0	---	0.00	29.816 
23:15	68.9	68.9	68.9	72	59.5	0	0	---	0.00	29.805 
23:20	68.8	68.8	68.8	73	59.8	0	0	---	0.00	29.806 
23:25	68.6	68.6	68.6	73	59.6	0	0	---	0.00	29.807 
23:30	68.4	68.4	68.4	73	59.4	0	0	---	0.00	29.811 
23:35	68.3	68.3	68.3	73	59.3	0	0	---	0.00	29.809 
23:40	68.1	68.1	68.1	74	59.5	0	0	---	0.00	29.808 
23:45	67.9	67.9	67.9	76	60.0	0	0	---	0.00	29.807 
23:50	67.8	67.8	67.8	76	59.9	0	0	---	0.00	29.807 
23:55	67.6	67.6	67.6	77	60.1	0	0	---	0.00	29.808 

CoCoRaHS
IN-AL-39
A2 Web Hosting
Creative Commons License
GoDaddy
Look for:

loaded 2017-12-13 09:44:10 • last modified 2010-11-18 10:43:29
Privacy PolicyDisclaimer
• wx.awcolley.com is powered by PmWiki v.2002016 •
• all content (unless otherwise noted) © 2017 A W Colley